Terminal Aerodrome Forecast
Issued by NWS Brownsville, TX

Home | Current Version | Previous Version | Text Only | Print | Product List | Glossary On
Versions: 1 2 3 4 5 6 7 8 9 10 11 12 13 14
000
FTUS44 KBRO 281122
TAFHRL
TAF
KHRL 281122Z 2812/2912 29003KT P6SM SKC
     FM281700 09010G15KT P6SM FEW040
     FM290300 10004KT P6SM FEW025=

USA.gov is the U.S. government's official web portal to all federal, state and local government web resources and services.